Terminal Aerodrome Forecast
Issued by NWS Sioux Falls, SD

Home | Current Version | Previous Version | Text Only | Print | Product List | Glossary On
Versions: 1 2 3 4 5 6 7 8 9 10 11 12 13 14 15 16 17 18 19 20
267
FTUS43 KFSD 070526
TAFFSD
TAF
KFSD 070526Z 0706/0806 25009KT P6SM BKN100 WS008/29038KT
     FM070700 28013KT P6SM SCT100 WS010/30045KT
     FM071400 28018G25KT P6SM SCT120
     FM072000 31025G34KT P6SM BKN040
     FM080000 32025G34KT 5SM -SHSN OVC030=

USA.gov is the U.S. government's official web portal to all federal, state and local government web resources and services.